createdAt,value
2023-04-29T00:00:24.536Z,100493.34
2023-04-29T00:03:51.651Z,100488.69
2023-04-29T00:07:25.805Z,100492.31
2023-04-29T00:11:07.052Z,100484.94
2023-04-29T00:14:47.462Z,100489.44
2023-04-29T00:18:26.821Z,100478.88
2023-04-29T00:21:51.172Z,100472.59
2023-04-29T00:25:12.321Z,100465.84
2023-04-29T00:28:30.977Z,100466.06
2023-04-29T00:31:53.088Z,100476.41
2023-04-29T00:35:32.625Z,100472.59
2023-04-29T00:38:47.888Z,100471.88
2023-04-29T00:42:08.510Z,100476.84
2023-04-29T00:45:23.589Z,100481.38
2023-04-29T00:48:51.367Z,100492.44
2023-04-29T00:52:18.642Z,100485.91
2023-04-29T00:55:47.888Z,100491.00
2023-04-29T00:59:28.104Z,100478.69
2023-04-29T01:03:01.134Z,100483.84
2023-04-29T01:07:06.246Z,100479.88
2023-04-29T01:10:36.641Z,100477.00
2023-04-29T01:14:02.346Z,100485.63
2023-04-29T01:17:30.551Z,100489.06
2023-04-29T01:21:03.597Z,100485.41
2023-04-29T01:24:35.476Z,100483.00
2023-04-29T01:28:33.454Z,100474.47
2023-04-29T01:32:34.615Z,100479.47
2023-04-29T01:36:22.740Z,100474.63
2023-04-29T01:39:57.003Z,100470.50
2023-04-29T01:43:50.220Z,100470.69
2023-04-29T01:47:47.286Z,100472.31
2023-04-29T01:51:08.565Z,100468.22
2023-04-29T01:55:24.563Z,100466.25
2023-04-29T01:59:12.091Z,100469.03
2023-04-29T02:03:19.868Z,100469.38
2023-04-29T02:07:04.780Z,100470.94
2023-04-29T02:10:41.008Z,100474.94
2023-04-29T02:18:50.172Z,100466.16
2023-04-29T02:22:22.708Z,100463.75
2023-04-29T02:25:51.123Z,100463.13
2023-04-29T02:33:00.821Z,100466.06
2023-04-29T02:36:21.460Z,100453.88
2023-04-29T02:39:53.889Z,100456.69
2023-04-29T02:43:47.293Z,100457.19
2023-04-29T02:47:30.320Z,100448.03
2023-04-29T02:50:53.393Z,100445.44
2023-04-29T02:54:31.795Z,100445.00
2023-04-29T02:58:08.966Z,100437.16
2023-04-29T03:01:37.427Z,100440.06
2023-04-29T03:05:05.270Z,100445.50
2023-04-29T03:08:50.402Z,100448.72
2023-04-29T03:12:23.233Z,100449.13
2023-04-29T03:16:09.210Z,100447.84
2023-04-29T03:19:32.985Z,100443.56
2023-04-29T03:23:13.435Z,100439.13
2023-04-29T03:26:26.187Z,100450.63
2023-04-29T03:30:00.038Z,100452.13
2023-04-29T03:33:54.310Z,100452.25
2023-04-29T03:37:33.187Z,100451.41
2023-04-29T03:45:41.701Z,100450.13
2023-04-29T03:49:18.160Z,100458.44
2023-04-29T03:57:16.808Z,100465.28
2023-04-29T04:00:54.181Z,100466.66
2023-04-29T04:04:27.833Z,100472.97
2023-04-29T04:08:29.748Z,100472.16
2023-04-29T04:12:15.257Z,100479.72
2023-04-29T04:15:54.142Z,100486.47
2023-04-29T04:20:09.684Z,100487.97
2023-04-29T04:23:56.297Z,100480.31
2023-04-29T04:28:33.853Z,100488.28
2023-04-29T04:32:15.409Z,100485.00
2023-04-29T04:35:51.208Z,100487.66
2023-04-29T04:40:21.147Z,100490.00
2023-04-29T04:43:55.992Z,100479.66
2023-04-29T04:47:39.956Z,100475.53
2023-04-29T04:51:30.782Z,100479.84
2023-04-29T04:55:00.243Z,100481.56
2023-04-29T04:58:27.053Z,100479.16
2023-04-29T05:02:01.176Z,100477.13
2023-04-29T05:05:23.745Z,100469.09
2023-04-29T05:09:04.458Z,100472.88
2023-04-29T05:13:04.322Z,100469.56
2023-04-29T05:16:40.901Z,100472.09
2023-04-29T05:20:46.632Z,100479.25
2023-04-29T05:25:07.209Z,100479.75
2023-04-29T05:29:05.086Z,100475.50
2023-04-29T05:33:26.856Z,100477.91
2023-04-29T05:37:14.259Z,100479.63
2023-04-29T05:41:08.597Z,100477.72
2023-04-29T05:44:53.636Z,100485.06
2023-04-29T05:48:36.474Z,100485.06
2023-04-29T05:52:50.013Z,100490.88
2023-04-29T05:56:16.133Z,100484.06
2023-04-29T05:59:22.773Z,100491.50
2023-04-29T06:03:01.660Z,100485.75
2023-04-29T06:06:35.643Z,100480.88
2023-04-29T06:10:21.726Z,100478.44
2023-04-29T06:18:22.919Z,100507.19
2023-04-29T06:21:54.672Z,100513.13
2023-04-29T06:25:28.797Z,100507.25
2023-04-29T06:29:04.997Z,100500.81
2023-04-29T06:32:43.965Z,100499.22
2023-04-29T06:40:47.078Z,100499.03
2023-04-29T06:44:30.209Z,100492.69
2023-04-29T06:48:19.311Z,100499.53
2023-04-29T06:51:49.896Z,100505.56
2023-04-29T06:55:12.419Z,100507.00
2023-04-29T06:58:33.280Z,100506.38
2023-04-29T07:06:13.418Z,100501.56
2023-04-29T07:09:28.267Z,100506.34
2023-04-29T07:12:58.363Z,100506.69
2023-04-29T07:16:26.914Z,100501.28
2023-04-29T07:19:51.275Z,100505.50
2023-04-29T07:23:07.505Z,100510.75
2023-04-29T07:26:33.459Z,100508.22
2023-04-29T07:30:15.357Z,100507.69
2023-04-29T07:33:43.663Z,100505.47
2023-04-29T07:37:12.915Z,100506.63
2023-04-29T07:40:48.051Z,100505.16
2023-04-29T07:44:02.134Z,100500.50
2023-04-29T07:48:01.320Z,100499.81
2023-04-29T07:55:36.112Z,100512.34
2023-04-29T07:59:16.468Z,100518.19
2023-04-29T08:03:07.085Z,100516.06
2023-04-29T08:06:50.597Z,100513.66
2023-04-29T08:10:50.952Z,100518.00
2023-04-29T08:14:27.701Z,100511.59
2023-04-29T08:18:13.535Z,100518.84
2023-04-29T08:21:38.875Z,100515.66
2023-04-29T08:25:02.613Z,100526.91
2023-04-29T08:28:19.856Z,100520.59
2023-04-29T08:31:44.771Z,100519.16
2023-04-29T08:35:04.855Z,100526.50
2023-04-29T08:42:41.475Z,100525.28
2023-04-29T08:46:06.459Z,100525.69
2023-04-29T08:49:28.076Z,100527.69
2023-04-29T08:52:57.544Z,100526.97
2023-04-29T08:56:38.449Z,100526.19
2023-04-29T09:00:12.748Z,100530.78
2023-04-29T09:03:52.413Z,100531.06
2023-04-29T09:07:51.073Z,100533.78
2023-04-29T09:11:27.632Z,100540.41
2023-04-29T09:14:49.345Z,100549.06
2023-04-29T09:18:08.161Z,100542.47
2023-04-29T09:21:25.350Z,100536.78
2023-04-29T09:24:52.332Z,100532.91
2023-04-29T09:28:37.650Z,100538.06
2023-04-29T09:32:28.965Z,100534.44
2023-04-29T09:36:12.145Z,100532.94
2023-04-29T09:40:57.659Z,100531.31
2023-04-29T09:45:04.215Z,100528.78
2023-04-29T09:48:24.542Z,100531.69
2023-04-29T09:52:05.167Z,100526.38
2023-04-29T09:55:51.063Z,100523.47
2023-04-29T09:59:21.515Z,100526.03
2023-04-29T10:02:39.974Z,100523.34
2023-04-29T10:05:58.801Z,100517.19
2023-04-29T10:09:27.924Z,100516.03
2023-04-29T10:12:41.500Z,100506.75
2023-04-29T10:16:40.377Z,100511.00
2023-04-29T10:20:21.350Z,100518.47
2023-04-29T10:23:48.976Z,100517.06
2023-04-29T10:27:40.013Z,100508.44
2023-04-29T10:31:10.911Z,100505.38
2023-04-29T10:34:32.954Z,100502.19
2023-04-29T10:37:57.895Z,100491.41
2023-04-29T10:41:39.646Z,100486.28
2023-04-29T10:45:36.783Z,100479.09
2023-04-29T10:48:59.823Z,100468.38
2023-04-29T10:52:25.825Z,100467.34
2023-04-29T10:55:46.920Z,100465.59
2023-04-29T10:59:09.833Z,100454.25
2023-04-29T11:02:31.497Z,100439.69
2023-04-29T11:05:49.459Z,100446.41
2023-04-29T11:09:26.595Z,100447.75
2023-04-29T11:12:48.033Z,100435.66
2023-04-29T11:16:11.891Z,100433.16
2023-04-29T11:19:47.069Z,100434.47
2023-04-29T11:23:14.499Z,100427.34
2023-04-29T11:26:28.058Z,100431.59
2023-04-29T11:29:49.242Z,100421.88
2023-04-29T11:33:18.275Z,100415.69
2023-04-29T11:36:42.209Z,100430.69
2023-04-29T11:40:13.687Z,100420.63
2023-04-29T11:43:30.144Z,100424.25
2023-04-29T11:46:50.848Z,100422.88
2023-04-29T11:50:11.154Z,100425.94
2023-04-29T11:53:37.596Z,100426.50
2023-04-29T11:57:03.520Z,100426.06
2023-04-29T12:00:16.955Z,100415.06
2023-04-29T12:03:31.988Z,100415.97
2023-04-29T12:06:55.472Z,100401.75
2023-04-29T12:10:22.617Z,100408.41
2023-04-29T12:13:31.522Z,100395.97
2023-04-29T12:16:40.644Z,100407.97
2023-04-29T12:19:57.745Z,100410.53
2023-04-29T12:23:24.477Z,100406.31
2023-04-29T12:26:40.911Z,100397.72
2023-04-29T12:29:58.440Z,100394.06
2023-04-29T12:33:16.525Z,100399.53
2023-04-29T12:36:45.704Z,100392.22
2023-04-29T12:40:05.084Z,100392.31
2023-04-29T12:43:37.755Z,100387.47
2023-04-29T12:47:21.891Z,100375.22
2023-04-29T12:51:11.217Z,100382.44
2023-04-29T12:54:57.675Z,100374.88
2023-04-29T12:58:30.020Z,100369.00
2023-04-29T13:02:03.008Z,100360.06
2023-04-29T13:05:08.758Z,100352.44
2023-04-29T13:08:38.183Z,100349.19
2023-04-29T13:12:15.290Z,100348.16
2023-04-29T13:15:47.047Z,100345.56
2023-04-29T13:19:23.696Z,100342.25
2023-04-29T13:22:35.461Z,100332.94
2023-04-29T13:25:49.000Z,100346.94
2023-04-29T13:29:12.445Z,100342.59
2023-04-29T13:32:34.725Z,100332.44
2023-04-29T13:35:57.314Z,100329.13
2023-04-29T13:39:14.449Z,100324.97
2023-04-29T13:42:45.259Z,100318.47
2023-04-29T13:46:38.408Z,100315.25
2023-04-29T13:50:54.004Z,100310.41
2023-04-29T14:04:29.110Z,100317.41
2023-04-29T14:07:58.947Z,100318.16
2023-04-29T14:11:43.293Z,100311.19
2023-04-29T14:15:22.305Z,100305.63
2023-04-29T14:19:06.551Z,100303.50
2023-04-29T14:22:41.886Z,100306.72
2023-04-29T14:26:16.512Z,100306.72
2023-04-29T14:29:43.265Z,100302.59
2023-04-29T14:33:20.185Z,100299.31
2023-04-29T14:36:49.746Z,100298.16
2023-04-29T14:40:06.963Z,100294.47
2023-04-29T14:43:36.684Z,100283.19
2023-04-29T14:47:09.828Z,100282.63
2023-04-29T14:50:41.718Z,100292.63
2023-04-29T14:54:06.734Z,100300.91
2023-04-29T14:57:30.020Z,100300.50
2023-04-29T15:00:52.662Z,100302.97
2023-04-29T15:04:26.754Z,100299.22
2023-04-29T15:07:48.244Z,100307.84
2023-04-29T15:11:00.369Z,100306.88
2023-04-29T15:14:54.975Z,100298.44
2023-04-29T15:18:51.347Z,100290.75
2023-04-29T15:22:31.477Z,100296.94
2023-04-29T15:26:10.810Z,100293.44
2023-04-29T15:29:30.342Z,100305.78
2023-04-29T15:33:00.865Z,100292.66
2023-04-29T15:36:20.256Z,100292.84
2023-04-29T15:39:51.851Z,100291.28
2023-04-29T15:43:23.402Z,100289.91
2023-04-29T15:46:43.264Z,100286.38
2023-04-29T15:50:01.820Z,100274.44
2023-04-29T15:53:44.880Z,100278.16
2023-04-29T15:56:59.868Z,100264.69
2023-04-29T16:00:27.642Z,100277.50
2023-04-29T16:03:58.884Z,100280.94
2023-04-29T16:07:31.688Z,100274.78
2023-04-29T16:11:07.691Z,100284.22
2023-04-29T16:14:21.320Z,100279.38
2023-04-29T16:17:37.101Z,100279.63
2023-04-29T16:21:01.123Z,100274.34
2023-04-29T16:24:17.512Z,100278.78
2023-04-29T16:27:49.269Z,100270.59
2023-04-29T16:31:08.927Z,100274.63
2023-04-29T16:34:19.248Z,100275.38
2023-04-29T16:37:45.969Z,100278.00
2023-04-29T16:41:12.157Z,100267.09
2023-04-29T16:44:27.599Z,100270.44
2023-04-29T16:47:45.765Z,100270.25
2023-04-29T16:51:00.408Z,100272.13
2023-04-29T16:54:24.796Z,100276.75
2023-04-29T16:58:15.043Z,100270.25
2023-04-29T17:01:50.985Z,100278.78
2023-04-29T17:05:16.932Z,100282.03
2023-04-29T17:08:38.635Z,100283.63
2023-04-29T17:12:21.772Z,100292.00
2023-04-29T17:15:44.868Z,100299.19
2023-04-29T17:19:07.724Z,100297.94
2023-04-29T17:22:25.898Z,100305.84
2023-04-29T17:26:02.135Z,100304.94
2023-04-29T17:29:32.859Z,100303.41
2023-04-29T17:32:49.956Z,100309.34
2023-04-29T17:36:08.666Z,100310.13
2023-04-29T17:39:47.387Z,100307.06
2023-04-29T17:43:21.211Z,100311.03
2023-04-29T17:46:55.940Z,100310.56
2023-04-29T17:50:21.200Z,100318.81
2023-04-29T17:54:12.533Z,100314.34
2023-04-29T17:57:50.351Z,100316.50
2023-04-29T18:01:15.009Z,100322.81
2023-04-29T18:08:52.510Z,100313.69
2023-04-29T18:12:25.321Z,100322.84
2023-04-29T18:16:01.478Z,100330.97
2023-04-29T18:19:15.067Z,100343.44
2023-04-29T18:22:45.659Z,100347.22
2023-04-29T18:30:02.929Z,100358.94
2023-04-29T18:33:39.283Z,100363.16
2023-04-29T18:37:23.156Z,100361.28
2023-04-29T18:44:33.839Z,100365.97
2023-04-29T18:48:24.036Z,100373.75
2023-04-29T18:51:49.046Z,100379.09
2023-04-29T18:55:26.995Z,100379.09
2023-04-29T18:59:20.602Z,100384.28
2023-04-29T19:02:58.371Z,100386.06
2023-04-29T19:06:44.988Z,100385.72
2023-04-29T19:10:10.641Z,100381.19
2023-04-29T19:13:41.067Z,100381.66
2023-04-29T19:17:11.184Z,100386.59
2023-04-29T19:20:37.076Z,100381.31
2023-04-29T19:24:13.960Z,100397.41
2023-04-29T19:27:39.665Z,100396.16
2023-04-29T19:31:01.984Z,100393.28
2023-04-29T19:34:34.871Z,100391.94
2023-04-29T19:38:11.873Z,100394.91
2023-04-29T19:41:53.184Z,100395.94
2023-04-29T19:45:36.596Z,100396.41
2023-04-29T19:49:06.783Z,100397.81
2023-04-29T19:52:25.487Z,100399.44
2023-04-29T19:56:02.463Z,100405.75
2023-04-29T19:59:21.324Z,100405.03
2023-04-29T20:02:44.812Z,100402.22
2023-04-29T20:06:04.993Z,100408.97
2023-04-29T20:09:26.932Z,100415.56
2023-04-29T20:12:51.940Z,100410.84
2023-04-29T20:16:04.553Z,100409.66
2023-04-29T20:19:25.017Z,100408.25
2023-04-29T20:22:51.606Z,100403.66
2023-04-29T20:26:28.520Z,100406.88
2023-04-29T20:29:54.711Z,100409.53
2023-04-29T20:33:09.115Z,100405.53
2023-04-29T20:36:27.339Z,100406.94
2023-04-29T20:39:46.628Z,100409.19
2023-04-29T20:42:55.199Z,100409.41
2023-04-29T20:46:13.294Z,100418.31
2023-04-29T20:49:34.174Z,100420.59
2023-04-29T20:52:49.660Z,100421.25
2023-04-29T20:56:08.285Z,100425.28
2023-04-29T20:59:31.149Z,100430.59
2023-04-29T21:03:07.445Z,100432.31
2023-04-29T21:06:53.987Z,100426.06
2023-04-29T21:10:43.441Z,100427.69
2023-04-29T21:14:12.294Z,100438.78
2023-04-29T21:17:38.388Z,100439.75
2023-04-29T21:21:03.335Z,100430.44
2023-04-29T21:24:24.431Z,100441.38
2023-04-29T21:27:57.467Z,100435.75
2023-04-29T21:31:17.911Z,100435.72
2023-04-29T21:34:42.435Z,100434.25
2023-04-29T21:38:06.129Z,100435.41
2023-04-29T21:41:39.459Z,100439.06
2023-04-29T21:45:13.099Z,100443.63
2023-04-29T21:48:46.440Z,100443.81
2023-04-29T21:52:02.220Z,100453.78
2023-04-29T21:55:30.393Z,100448.78
2023-04-29T21:59:34.409Z,100453.28
2023-04-29T22:03:20.377Z,100442.81
2023-04-29T22:07:11.786Z,100434.81
2023-04-29T22:10:35.998Z,100436.59
2023-04-29T22:13:55.830Z,100442.69
2023-04-29T22:17:14.498Z,100434.34
2023-04-29T22:20:43.375Z,100442.38
2023-04-29T22:24:12.772Z,100428.13
2023-04-29T22:27:37.578Z,100441.75
2023-04-29T22:35:00.679Z,100439.50
2023-04-29T22:38:25.860Z,100435.00
2023-04-29T22:41:44.066Z,100442.84
2023-04-29T22:45:09.043Z,100442.06
2023-04-29T22:48:35.154Z,100444.78
2023-04-29T22:51:53.526Z,100445.78
2023-04-29T22:55:25.282Z,100447.06
2023-04-29T22:58:51.507Z,100450.09
2023-04-29T23:02:54.077Z,100445.28
2023-04-29T23:06:53.754Z,100447.34
2023-04-29T23:15:25.809Z,100450.44
2023-04-29T23:18:48.284Z,100449.44
2023-04-29T23:22:49.608Z,100451.22
2023-04-29T23:26:26.986Z,100445.44
2023-04-29T23:30:15.435Z,100432.78
2023-04-29T23:33:47.614Z,100434.19
2023-04-29T23:38:01.661Z,100426.66
2023-04-29T23:41:42.893Z,100427.13
2023-04-29T23:45:01.954Z,100430.84
2023-04-29T23:48:17.958Z,100429.56
2023-04-29T23:51:36.007Z,100422.97
2023-04-29T23:54:56.023Z,100430.03
2023-04-29T23:58:19.730Z,100431.81
